createdAt,value
2022-12-09T00:04:11.566Z,1.53
2022-12-09T00:09:17.477Z,1.58
2022-12-09T00:14:21.206Z,1.62
2022-12-09T00:19:25.013Z,1.54
2022-12-09T00:24:29.894Z,1.54
2022-12-09T00:29:33.491Z,1.57
2022-12-09T00:34:38.128Z,1.55
2022-12-09T00:39:46.413Z,1.47
2022-12-09T00:44:50.262Z,1.44
2022-12-09T00:49:54.081Z,1.56
2022-12-09T00:54:59.080Z,1.46
2022-12-09T01:00:03.024Z,1.62
2022-12-09T01:05:07.744Z,1.65
2022-12-09T01:10:13.121Z,1.47
2022-12-09T01:15:16.910Z,1.29
2022-12-09T01:20:20.663Z,1.38
2022-12-09T01:25:26.634Z,1.13
2022-12-09T01:30:30.352Z,1.10
2022-12-09T01:35:34.142Z,1.00
2022-12-09T01:40:39.188Z,1.29
2022-12-09T01:45:43.762Z,1.24
2022-12-09T01:50:51.825Z,1.25
2022-12-09T01:56:01.470Z,1.24
2022-12-09T02:01:05.410Z,1.31
2022-12-09T02:06:09.724Z,1.41
2022-12-09T02:11:23.622Z,1.24
2022-12-09T02:16:30.724Z,1.03
2022-12-09T02:21:39.510Z,1.15
2022-12-09T02:26:53.040Z,1.22
2022-12-09T02:32:28.220Z,0.92
2022-12-09T02:37:37.163Z,0.91
2022-12-09T02:42:42.605Z,1.12
2022-12-09T02:47:52.003Z,0.88
2022-12-09T02:53:00.113Z,0.87
2022-12-09T02:58:06.342Z,1.01
2022-12-09T03:03:16.654Z,0.92
2022-12-09T03:08:30.817Z,0.77
2022-12-09T03:13:46.851Z,0.96
2022-12-09T03:18:56.856Z,0.99
2022-12-09T03:24:03.878Z,0.77
2022-12-09T03:29:11.103Z,0.86
2022-12-09T03:34:18.326Z,0.87
2022-12-09T03:39:28.472Z,0.72
2022-12-09T03:44:39.210Z,0.44
2022-12-09T03:49:43.437Z,0.31
2022-12-09T03:54:51.331Z,0.21
2022-12-09T03:59:59.369Z,0.34
2022-12-09T04:05:03.406Z,0.36
2022-12-09T04:10:09.877Z,0.29
2022-12-09T04:15:14.508Z,0.46
2022-12-09T04:20:18.791Z,0.28
2022-12-09T04:25:23.905Z,0.46
2022-12-09T04:30:28.036Z,0.51
2022-12-09T04:35:31.986Z,0.49
2022-12-09T04:40:37.532Z,0.62
2022-12-09T04:45:41.497Z,0.70
2022-12-09T04:50:46.113Z,0.96
2022-12-09T04:55:51.626Z,0.88
2022-12-09T05:00:55.984Z,0.87
2022-12-09T05:06:00.585Z,0.92
2022-12-09T05:11:07.085Z,0.95
2022-12-09T05:16:18.362Z,0.85
2022-12-09T05:21:23.691Z,0.96
2022-12-09T05:26:29.502Z,0.91
2022-12-09T05:31:33.625Z,1.03
2022-12-09T05:36:38.249Z,0.92
2022-12-09T05:41:44.586Z,0.82
2022-12-09T05:46:48.543Z,0.72
2022-12-09T05:51:52.182Z,0.87
2022-12-09T05:56:58.157Z,1.00
2022-12-09T06:02:08.305Z,1.00
2022-12-09T06:07:14.045Z,0.81
2022-12-09T06:12:19.451Z,0.81
2022-12-09T06:17:23.715Z,0.78
2022-12-09T06:22:28.114Z,0.74
2022-12-09T06:27:33.405Z,0.46
2022-12-09T06:32:37.417Z,0.64
2022-12-09T06:37:41.610Z,0.80
2022-12-09T06:42:46.915Z,0.85
2022-12-09T06:47:50.757Z,0.79
2022-12-09T06:52:54.508Z,0.79
2022-12-09T06:58:00.630Z,0.60
2022-12-09T07:03:04.983Z,0.45
2022-12-09T07:08:08.738Z,0.20
2022-12-09T07:13:14.473Z,0.46
2022-12-09T07:18:18.435Z,0.77
2022-12-09T07:23:22.503Z,0.77
2022-12-09T07:28:27.531Z,0.77
2022-12-09T07:33:31.914Z,0.74
2022-12-09T07:38:35.696Z,0.73
2022-12-09T07:43:40.989Z,0.75
2022-12-09T07:48:45.048Z,0.68
2022-12-09T07:53:49.497Z,0.37
2022-12-09T07:58:55.239Z,0.77
2022-12-09T08:03:59.547Z,0.91
2022-12-09T08:09:06.508Z,0.96
2022-12-09T08:14:13.545Z,0.89
2022-12-09T08:19:17.692Z,1.00
2022-12-09T08:24:21.871Z,1.09
2022-12-09T08:29:27.871Z,1.17
2022-12-09T08:34:31.712Z,1.44
2022-12-09T08:39:35.582Z,1.59
2022-12-09T08:44:40.889Z,1.23
2022-12-09T08:49:44.666Z,1.44
2022-12-09T08:54:48.763Z,1.40
2022-12-09T08:59:53.932Z,1.69
2022-12-09T09:05:00.254Z,1.55
2022-12-09T09:10:05.251Z,1.66
2022-12-09T09:15:11.631Z,1.75
2022-12-09T09:20:16.690Z,1.50
2022-12-09T09:25:20.690Z,2.01
2022-12-09T09:30:26.313Z,2.34
2022-12-09T09:35:30.474Z,2.30
2022-12-09T09:40:35.389Z,2.17
2022-12-09T09:45:41.045Z,2.22
2022-12-09T09:50:51.851Z,1.82
2022-12-09T09:56:00.172Z,2.66
2022-12-09T10:01:09.398Z,2.83
2022-12-09T10:06:24.954Z,3.07
2022-12-09T10:11:34.103Z,2.68
2022-12-09T10:16:44.698Z,2.37
2022-12-09T10:21:52.867Z,2.92
2022-12-09T10:27:06.908Z,3.06
2022-12-09T10:32:17.083Z,3.60
2022-12-09T10:37:28.364Z,3.24
2022-12-09T10:42:53.007Z,3.20
2022-12-09T10:47:58.226Z,3.09
2022-12-09T10:53:07.644Z,2.95
2022-12-09T10:58:19.130Z,2.78
2022-12-09T11:03:28.675Z,2.62
2022-12-09T11:08:33.214Z,2.59
2022-12-09T11:13:44.320Z,2.37
2022-12-09T11:18:49.889Z,2.69
2022-12-09T11:24:02.567Z,2.58
2022-12-09T11:29:17.214Z,2.64
2022-12-09T11:34:26.258Z,2.74
2022-12-09T11:39:32.289Z,2.52
2022-12-09T11:44:37.136Z,2.52
2022-12-09T11:49:50.508Z,3.03
2022-12-09T11:55:04.234Z,2.71
2022-12-09T12:00:18.358Z,2.37
2022-12-09T12:05:26.434Z,2.12
2022-12-09T12:10:35.523Z,1.68
2022-12-09T12:15:47.349Z,1.35
2022-12-09T12:21:08.304Z,1.61
2022-12-09T12:26:20.277Z,1.42
2022-12-09T12:31:37.889Z,1.50
2022-12-09T12:36:50.362Z,1.42
2022-12-09T12:42:02.591Z,1.47
2022-12-09T12:47:14.833Z,1.67
2022-12-09T12:58:07.441Z,1.72
2022-12-09T13:03:22.470Z,1.08
2022-12-09T13:08:34.581Z,1.18
2022-12-09T13:13:44.512Z,1.37
2022-12-09T13:18:50.269Z,1.36
2022-12-09T13:24:05.099Z,1.53
2022-12-09T13:29:22.829Z,1.68
2022-12-09T13:34:35.720Z,1.94
2022-12-09T13:39:59.578Z,1.45
2022-12-09T13:45:07.770Z,1.70
2022-12-09T13:50:26.143Z,1.75
2022-12-09T13:55:39.812Z,1.54
2022-12-09T14:00:45.725Z,1.73
2022-12-09T14:05:50.524Z,1.50
2022-12-09T14:10:55.706Z,1.64
2022-12-09T14:16:18.361Z,1.57
2022-12-09T14:21:31.188Z,1.66
2022-12-09T14:26:37.584Z,1.74
2022-12-09T14:32:01.269Z,1.53
2022-12-09T14:37:35.543Z,1.63
2022-12-09T14:42:47.824Z,1.48
2022-12-09T14:47:52.187Z,1.57
2022-12-09T14:52:58.771Z,1.50
2022-12-09T14:58:04.030Z,1.55
2022-12-09T15:03:44.484Z,1.36
2022-12-09T15:08:43.227Z,1.09
2022-12-09T15:13:51.401Z,1.26
2022-12-09T15:18:55.672Z,1.51
2022-12-09T15:24:00.302Z,1.32
2022-12-09T15:29:06.482Z,1.41
2022-12-09T15:34:15.318Z,1.45
2022-12-09T15:39:24.376Z,1.54
2022-12-09T15:44:33.252Z,1.45
2022-12-09T15:49:42.608Z,1.37
2022-12-09T15:54:47.226Z,1.40
2022-12-09T15:59:57.059Z,1.07
2022-12-09T16:05:04.164Z,1.23
2022-12-09T16:10:12.543Z,1.22
2022-12-09T16:15:42.170Z,1.12
2022-12-09T16:20:56.894Z,1.03
2022-12-09T16:26:07.331Z,0.78
2022-12-09T16:31:19.453Z,0.99
2022-12-09T16:36:29.565Z,0.99
2022-12-09T16:42:01.665Z,1.08
2022-12-09T16:47:12.613Z,1.02
2022-12-09T16:52:18.956Z,1.23
2022-12-09T16:57:24.016Z,1.27
2022-12-09T17:02:38.756Z,1.23
2022-12-09T17:07:43.768Z,1.30
2022-12-09T17:12:48.846Z,0.85
2022-12-09T17:17:52.562Z,1.13
2022-12-09T17:22:56.396Z,1.15
2022-12-09T17:28:03.313Z,1.05
2022-12-09T17:33:06.949Z,1.04
2022-12-09T17:38:10.878Z,1.08
2022-12-09T17:43:15.904Z,1.17
2022-12-09T17:48:19.597Z,1.24
2022-12-09T17:53:23.439Z,1.10
2022-12-09T17:58:28.373Z,0.96
2022-12-09T18:03:55.065Z,1.10
2022-12-09T18:08:55.876Z,0.97
2022-12-09T18:14:01.130Z,0.81
2022-12-09T18:19:06.520Z,0.92
2022-12-09T18:24:10.592Z,0.87
2022-12-09T18:29:15.853Z,0.93
2022-12-09T18:34:19.686Z,0.98
2022-12-09T18:39:23.301Z,0.77
2022-12-09T18:44:28.593Z,0.67
2022-12-09T18:49:32.249Z,1.02
2022-12-09T18:54:36.664Z,0.66
2022-12-09T18:59:41.594Z,0.84
2022-12-09T19:04:48.293Z,0.86
2022-12-09T19:09:51.984Z,0.74
2022-12-09T19:14:57.024Z,0.78
2022-12-09T19:20:00.872Z,0.82
2022-12-09T19:25:05.393Z,0.70
2022-12-09T19:30:11.661Z,0.95
2022-12-09T19:35:15.610Z,0.75
2022-12-09T19:40:19.914Z,0.96
2022-12-09T19:45:25.193Z,0.85
2022-12-09T19:50:30.456Z,0.99
2022-12-09T19:55:35.987Z,0.75
2022-12-09T20:00:41.794Z,0.95
2022-12-09T20:05:50.508Z,0.81
2022-12-09T20:10:58.061Z,1.11
2022-12-09T20:16:06.978Z,0.98
2022-12-09T20:21:13.497Z,1.07
2022-12-09T20:26:20.428Z,1.04
2022-12-09T20:31:28.120Z,0.91
2022-12-09T20:36:34.172Z,1.08
2022-12-09T20:41:38.339Z,1.01
2022-12-09T20:46:47.719Z,1.09
2022-12-09T20:51:51.854Z,0.59
2022-12-09T20:56:56.097Z,1.00
2022-12-09T21:02:02.824Z,1.16
2022-12-09T21:07:08.881Z,0.96
2022-12-09T21:12:13.628Z,1.08
2022-12-09T21:17:18.740Z,1.10
2022-12-09T21:22:22.247Z,1.20
2022-12-09T21:27:25.752Z,1.26
2022-12-09T21:32:32.548Z,1.35
2022-12-09T21:37:36.798Z,1.26
2022-12-09T21:42:40.379Z,1.08
2022-12-09T21:47:45.302Z,1.20
2022-12-09T21:52:48.822Z,1.27
2022-12-09T21:57:52.854Z,0.97
2022-12-09T22:02:57.816Z,1.05
2022-12-09T22:08:01.478Z,1.30
2022-12-09T22:13:05.421Z,1.23
2022-12-09T22:18:10.363Z,1.22
2022-12-09T22:23:14.007Z,1.26
2022-12-09T22:28:17.610Z,1.24
2022-12-09T22:33:23.966Z,1.25
2022-12-09T22:38:28.466Z,1.19
2022-12-09T22:43:37.787Z,1.24
2022-12-09T22:48:43.748Z,1.31
2022-12-09T22:53:48.911Z,1.04
2022-12-09T22:58:52.956Z,1.15
2022-12-09T23:03:59.782Z,1.08
2022-12-09T23:09:03.574Z,1.38
2022-12-09T23:14:07.020Z,1.35
2022-12-09T23:19:13.781Z,1.35
2022-12-09T23:24:24.413Z,1.18
2022-12-09T23:29:28.646Z,1.23
2022-12-09T23:34:33.648Z,1.18
2022-12-09T23:39:37.396Z,1.24
2022-12-09T23:44:41.096Z,1.44
2022-12-09T23:49:46.032Z,1.53
2022-12-09T23:54:49.612Z,1.47
2022-12-09T23:59:53.287Z,1.11
